Terminal Aerodrome Forecast
Issued by NWS Mt. Holly, NJ

Home | Current Version | Previous Version | Text Only | Print | Product List | Glossary On
Versions: 1 2 3 4 5 6 7 8 9 10 11 12 13 14 15
160
FTUS41 KPHI 220520
TAFACY
TAF
KACY 220520Z 2206/2306 24004KT P6SM BKN150
      TEMPO 2206/2210 5SM BR
     FM221000 VRB03KT P6SM BKN100
      TEMPO 2210/2212 5SM BR
     FM221700 16007KT P6SM SCT060 BKN200
     FM222100 VRB06KT P6SM BKN080 PROB30 2300/2306 4SM TSRA
      OVC040CB=

USA.gov is the U.S. government's official web portal to all federal, state and local government web resources and services.